createdAt,value
2016-02-07T14:20:03.731Z,939.92
2016-02-07T14:21:03.499Z,939.9
2016-02-07T14:22:03.455Z,939.94
2016-02-07T14:23:03.395Z,939.94
2016-02-07T14:24:03.352Z,939.95
2016-02-07T14:25:03.292Z,939.99
2016-02-07T14:26:03.249Z,940
2016-02-07T14:27:03.189Z,940.04
2016-02-07T14:28:03.147Z,940.11
2016-02-07T14:29:03.102Z,940.16
2016-02-07T14:30:03.042Z,940.22
2016-02-07T14:31:02.998Z,940.27
2016-02-07T14:32:02.954Z,940.33
2016-02-07T14:33:02.895Z,940.39
2016-02-07T14:34:02.898Z,940.41
2016-02-07T14:35:02.853Z,940.5
2016-02-07T14:36:02.794Z,940.5
2016-02-07T14:37:02.703Z,940.59
2016-02-07T14:38:02.659Z,940.63
2016-02-07T14:39:02.583Z,940.66
2016-02-07T14:40:02.556Z,940.7
2016-02-07T14:41:02.480Z,940.72
2016-02-07T14:42:02.436Z,940.8
2016-02-07T14:43:02.376Z,940.8
2016-02-07T14:44:02.331Z,940.85
2016-02-07T14:45:02.290Z,940.82
2016-02-07T14:46:02.231Z,940.92
2016-02-07T14:47:02.202Z,940.87
2016-02-07T14:48:02.142Z,940.85
2016-02-07T14:49:02.145Z,940.91
2016-02-07T14:50:02.022Z,940.93
2016-02-07T14:51:01.978Z,940.97
2016-02-07T14:52:01.919Z,941.08
2016-02-07T14:53:01.861Z,941.07
2016-02-07T14:54:01.817Z,941.13
2016-02-07T14:55:01.773Z,941.13
2016-02-07T14:56:01.744Z,941.19
2016-02-07T14:57:01.671Z,941.19
2016-02-07T14:58:01.611Z,941.23
2016-02-07T14:59:01.551Z,941.32
2016-02-07T15:00:01.523Z,941.27
2016-02-07T15:01:01.463Z,941.33
2016-02-07T15:02:01.403Z,941.43
2016-02-07T15:03:01.343Z,941.45
2016-02-07T15:04:01.317Z,941.5
2016-02-07T15:05:01.256Z,941.53
2016-02-07T15:06:01.198Z,941.54
2016-02-07T15:07:01.138Z,941.57
2016-02-07T15:08:01.093Z,941.6
2016-02-07T15:09:01.034Z,941.66
2016-02-07T15:10:00.990Z,941.68
2016-02-07T15:11:00.931Z,941.72
2016-02-07T15:12:00.873Z,941.75
2016-02-07T15:13:00.828Z,941.73
2016-02-07T15:14:00.788Z,941.76
2016-02-07T15:15:00.728Z,941.77
2016-02-07T15:16:00.669Z,941.85
2016-02-07T15:17:00.625Z,941.88
2016-02-07T15:18:00.565Z,941.91
2016-02-07T15:19:00.520Z,941.95
2016-02-07T15:20:00.464Z,941.96
2016-02-07T15:21:00.404Z,942.03
2016-02-07T15:22:00.344Z,942.09
2016-02-07T15:23:00.300Z,942.12
2016-02-07T15:24:00.242Z,942.25
2016-02-07T15:25:00.197Z,942.18
2016-02-07T15:26:00.137Z,942.24
2016-02-07T15:27:00.099Z,942.26
2016-02-07T15:28:00.055Z,942.23
2016-02-07T15:28:59.980Z,942.32
2016-02-07T15:29:59.935Z,942.31
2016-02-07T15:30:59.891Z,942.35
2016-02-07T15:31:59.830Z,942.37
2016-02-07T15:32:59.771Z,942.42
2016-02-07T15:33:59.727Z,942.46
2016-02-07T15:34:59.683Z,942.49
2016-02-07T15:35:59.623Z,942.5
2016-02-07T15:36:59.563Z,942.57
2016-02-07T15:37:59.504Z,942.62
2016-02-07T15:38:59.475Z,942.61
2016-02-07T15:39:59.430Z,942.65
2016-02-07T15:40:59.388Z,942.66
2016-02-07T15:41:59.312Z,942.65
2016-02-07T15:42:59.254Z,942.68
2016-02-07T15:43:59.225Z,942.67
2016-02-07T15:44:59.165Z,942.7
2016-02-07T15:45:59.105Z,942.72
2016-02-07T15:46:59.045Z,942.71
2016-02-07T15:47:59.001Z,942.71
2016-02-07T15:48:58.944Z,942.78
2016-02-07T15:49:58.884Z,942.78
2016-02-07T15:50:58.840Z,942.82
2016-02-07T15:51:58.812Z,942.85
2016-02-07T15:52:58.737Z,942.87
2016-02-07T15:53:58.680Z,942.88
2016-02-07T15:54:58.620Z,942.92
2016-02-07T15:55:58.594Z,942.91
2016-02-07T15:56:58.520Z,942.94
2016-02-07T15:57:58.492Z,942.97
2016-02-07T15:58:58.464Z,942.99
2016-02-07T15:59:58.372Z,943
2016-02-07T16:00:58.312Z,943.06
2016-02-07T16:01:58.268Z,943.07
2016-02-07T16:02:58.224Z,943.14
2016-02-07T16:03:58.179Z,943.13
2016-02-07T16:04:58.104Z,943.17
2016-02-07T16:05:58.060Z,943.16
2016-02-07T16:06:58.000Z,943.21
2016-02-07T16:07:57.958Z,943.23
2016-02-07T16:08:57.913Z,943.27
2016-02-07T16:09:57.856Z,943.25
2016-02-07T16:10:57.797Z,943.29
2016-02-07T16:11:57.752Z,943.32
2016-02-07T16:12:57.692Z,943.35
2016-02-07T16:13:57.648Z,943.35
2016-02-07T16:14:57.605Z,943.39
2016-02-07T16:15:57.545Z,943.37
2016-02-07T16:16:57.485Z,943.38
2016-02-07T16:17:57.457Z,943.37
2016-02-07T16:18:57.381Z,943.34
2016-02-07T16:19:57.353Z,943.37
2016-02-07T16:20:57.278Z,943.33
2016-02-07T16:21:57.249Z,943.34
2016-02-07T16:22:57.175Z,943.29
2016-02-07T16:23:57.122Z,943.34
2016-02-07T16:24:57.093Z,943.39
2016-02-07T16:25:57.034Z,943.39
2016-02-07T16:26:56.973Z,943.43
2016-02-07T16:27:56.930Z,943.44
2016-02-07T16:28:56.871Z,943.41
2016-02-07T16:29:56.827Z,943.44
2016-02-07T16:30:56.768Z,943.46
2016-02-07T16:31:56.707Z,943.44
2016-02-07T16:32:56.663Z,943.39
2016-02-07T16:33:56.603Z,943.42
2016-02-07T16:34:56.575Z,943.44
2016-02-07T16:35:56.515Z,943.45
2016-02-07T16:36:56.456Z,943.46
2016-02-07T16:37:56.412Z,943.47
2016-02-07T16:38:56.368Z,943.48
2016-02-07T16:39:56.308Z,943.45
2016-02-07T16:40:56.249Z,943.44
2016-02-07T16:41:56.188Z,943.42
2016-02-07T16:42:56.144Z,943.48
2016-02-07T16:43:56.085Z,943.45
2016-02-07T16:44:56.040Z,943.42
2016-02-07T16:45:55.995Z,943.4
2016-02-07T16:46:55.937Z,943.44
2016-02-07T16:47:55.907Z,943.48
2016-02-07T16:48:55.832Z,943.5
2016-02-07T16:49:55.789Z,943.51
2016-02-07T16:50:55.729Z,943.52
2016-02-07T16:51:55.701Z,943.52
2016-02-07T16:52:55.633Z,943.55
2016-02-07T16:53:55.589Z,943.57
2016-02-07T16:54:55.531Z,943.59
2016-02-07T16:55:55.471Z,943.56
2016-02-07T16:56:55.427Z,943.57
2016-02-07T16:57:55.368Z,943.56
2016-02-07T16:58:55.323Z,943.54
2016-02-07T16:59:55.261Z,943.6
2016-02-07T17:00:55.217Z,943.56
2016-02-07T17:01:55.157Z,943.63
2016-02-07T17:02:55.115Z,943.64
2016-02-07T17:03:55.056Z,943.68
2016-02-07T17:04:55.011Z,943.66
2016-02-07T17:05:54.950Z,943.69
2016-02-07T17:06:54.908Z,943.71
2016-02-07T17:07:54.863Z,943.74
2016-02-07T17:08:54.803Z,943.76
2016-02-07T17:09:54.775Z,943.78
2016-02-07T17:10:54.700Z,943.8
2016-02-07T17:11:54.672Z,943.87
2016-02-07T17:12:54.596Z,943.86
2016-02-07T17:13:54.536Z,943.89
2016-02-07T17:14:54.492Z,943.98
2016-02-07T17:15:54.433Z,943.99
2016-02-07T17:16:54.389Z,944.03
2016-02-07T17:17:54.328Z,944.01
2016-02-07T17:18:54.284Z,944.04
2016-02-07T17:19:54.224Z,944.02
2016-02-07T17:20:54.180Z,944.07
2016-02-07T17:21:54.126Z,944.07
2016-02-07T17:22:54.067Z,944.06
2016-02-07T17:23:54.022Z,944.02
2016-02-07T17:24:53.962Z,944.11
2016-02-07T17:25:53.918Z,944.08
2016-02-07T17:26:53.874Z,944.09
2016-02-07T17:27:53.798Z,944.16
2016-02-07T17:28:53.754Z,944.16
2016-02-07T17:29:53.710Z,944.15
2016-02-07T17:30:53.650Z,944.2
2016-02-07T17:31:53.607Z,944.22
2016-02-07T17:32:53.548Z,944.26
2016-02-07T17:33:53.487Z,944.28
2016-02-07T17:34:53.459Z,944.27
2016-02-07T17:35:53.384Z,944.27
2016-02-07T17:36:53.339Z,944.35
2016-02-07T17:37:53.282Z,944.37
2016-02-07T17:38:53.221Z,944.41
2016-02-07T17:39:53.178Z,944.37
2016-02-07T17:40:53.118Z,944.31
2016-02-07T17:41:53.074Z,944.33
2016-02-07T17:42:53.030Z,944.33
2016-02-07T17:43:52.954Z,944.41
2016-02-07T17:44:52.910Z,944.45
2016-02-07T17:45:52.852Z,944.43
2016-02-07T17:46:52.824Z,944.48
2016-02-07T17:47:52.748Z,944.43
2016-02-07T17:48:52.703Z,944.49
2016-02-07T17:49:52.644Z,944.5
2016-02-07T17:50:52.585Z,944.58
2016-02-07T17:51:52.573Z,944.64
2016-02-07T17:52:52.482Z,944.66
2016-02-07T17:53:52.422Z,944.69
2016-02-07T17:54:52.377Z,944.76
2016-02-07T17:55:52.318Z,944.82
2016-02-07T17:56:52.258Z,944.79
2016-02-07T17:57:52.199Z,944.81
2016-02-07T17:58:52.160Z,944.89
2016-02-07T17:59:52.099Z,944.87
2016-02-07T18:00:52.040Z,944.86
2016-02-07T18:01:52.012Z,944.89
2016-02-07T18:02:51.935Z,944.95
2016-02-07T18:03:51.892Z,944.94
2016-02-07T18:04:51.832Z,945.04
2016-02-07T18:05:51.773Z,945.01
2016-02-07T18:06:51.728Z,945.05
2016-02-07T18:07:51.668Z,945.04
2016-02-07T18:08:51.640Z,945.08
2016-02-07T18:09:51.580Z,945.14
2016-02-07T18:10:51.521Z,945.14
2016-02-07T18:11:51.461Z,945.17
2016-02-07T18:12:51.417Z,945.19
2016-02-07T18:13:51.357Z,945.16
2016-02-07T18:14:51.298Z,945.18
2016-02-07T18:15:51.238Z,945.28
2016-02-07T18:16:51.193Z,945.27
2016-02-07T18:17:51.133Z,945.21
2016-02-07T18:18:51.089Z,945.26
2016-02-07T18:19:51.023Z,945.18
2016-02-07T18:20:50.980Z,945.22
2016-02-07T18:21:50.919Z,945.26
2016-02-07T18:22:50.860Z,945.22
2016-02-07T18:23:50.831Z,945.27
2016-02-07T18:24:50.771Z,945.32
2016-02-07T18:25:50.697Z,945.36
2016-02-07T18:26:50.652Z,945.4
2016-02-07T18:27:50.608Z,945.42
2016-02-07T18:28:50.532Z,945.45
2016-02-07T18:29:50.488Z,945.48
2016-02-07T18:30:50.443Z,945.46
2016-02-07T18:31:50.384Z,945.5
2016-02-07T18:32:50.326Z,945.51
2016-02-07T18:33:50.282Z,945.5
2016-02-07T18:34:50.223Z,945.52
2016-02-07T18:35:50.162Z,945.51
2016-02-07T18:36:50.118Z,945.53
2016-02-07T18:37:50.059Z,945.62
2016-02-07T18:38:50.014Z,945.6
2016-02-07T18:39:49.954Z,945.58
2016-02-07T18:40:49.895Z,945.6
2016-02-07T18:41:49.835Z,945.67
2016-02-07T18:42:49.791Z,945.65
2016-02-07T18:43:49.747Z,945.69
2016-02-07T18:44:49.686Z,945.7
2016-02-07T18:45:49.627Z,945.74
2016-02-07T18:46:49.567Z,945.76
2016-02-07T18:47:49.522Z,945.79
2016-02-07T18:48:49.465Z,945.78
2016-02-07T18:49:49.421Z,945.82
2016-02-07T18:50:49.376Z,945.85
2016-02-07T18:51:49.301Z,945.86
2016-02-07T18:52:49.257Z,945.87
2016-02-07T18:53:49.229Z,945.98
2016-02-07T18:54:49.154Z,945.97
2016-02-07T18:55:49.094Z,945.93
2016-02-07T18:56:49.035Z,945.99
2016-02-07T18:57:48.991Z,945.98
2016-02-07T18:58:48.930Z,946.01
2016-02-07T18:59:48.885Z,946.06
2016-02-07T19:00:48.842Z,946.09
2016-02-07T19:01:48.782Z,946.06
2016-02-07T19:02:48.721Z,946.07
2016-02-07T19:03:48.679Z,946.07
2016-02-07T19:04:48.619Z,946.1
2016-02-07T19:05:48.574Z,946.13
2016-02-07T19:06:48.515Z,946.19
2016-02-07T19:07:48.455Z,946.21
2016-02-07T19:08:48.396Z,946.2
2016-02-07T19:09:48.352Z,946.23
2016-02-07T19:10:48.307Z,946.27
2016-02-07T19:11:48.247Z,946.27
2016-02-07T19:12:48.188Z,946.28
2016-02-07T19:13:48.144Z,946.25
2016-02-07T19:14:48.084Z,946.36
2016-02-07T19:15:48.025Z,946.29
2016-02-07T19:16:47.981Z,946.31
2016-02-07T19:17:47.921Z,946.31
2016-02-07T19:18:47.877Z,946.34
2016-02-07T19:19:47.820Z,946.31
2016-02-07T19:20:47.761Z,946.32
2016-02-07T19:21:47.700Z,946.35
2016-02-07T19:22:47.655Z,946.34
2016-02-07T19:23:47.596Z,946.39
2016-02-07T19:24:47.536Z,946.41
2016-02-07T19:25:47.492Z,946.43
2016-02-07T19:26:47.433Z,946.42
2016-02-07T19:27:47.372Z,946.4
2016-02-07T19:28:47.331Z,946.39
2016-02-07T19:29:47.271Z,946.46
2016-02-07T19:30:47.226Z,946.45
2016-02-07T19:31:47.167Z,946.53
2016-02-07T19:32:47.106Z,946.55
2016-02-07T19:33:47.063Z,946.6
2016-02-07T19:34:47.018Z,946.62
2016-02-07T19:35:46.943Z,946.68
2016-02-07T19:36:46.930Z,946.66
2016-02-07T19:37:46.839Z,946.68
2016-02-07T19:38:46.794Z,946.62
2016-02-07T19:39:46.736Z,946.64
2016-02-07T19:40:46.691Z,946.76
2016-02-07T19:41:46.647Z,946.68
2016-02-07T19:42:46.572Z,946.65
2016-02-07T19:43:46.528Z,946.64
2016-02-07T19:44:46.484Z,946.62
2016-02-07T19:45:46.409Z,946.65
2016-02-07T19:46:46.365Z,946.64
2016-02-07T19:47:46.304Z,946.69
2016-02-07T19:48:46.245Z,946.78
2016-02-07T19:49:46.209Z,946.72
2016-02-07T19:50:46.133Z,946.77
2016-02-07T19:51:46.089Z,946.82
2016-02-07T19:52:46.044Z,946.84
2016-02-07T19:53:45.969Z,946.84
2016-02-07T19:54:45.941Z,946.87
2016-02-07T19:55:45.864Z,946.9
2016-02-07T19:56:45.821Z,946.91
2016-02-07T19:57:45.777Z,946.91
2016-02-07T19:58:45.716Z,946.94
2016-02-07T19:59:45.657Z,946.94
2016-02-07T20:00:45.613Z,947
2016-02-07T20:01:45.553Z,947.06
2016-02-07T20:02:45.493Z,947.08
2016-02-07T20:03:45.450Z,947.1
2016-02-07T20:04:45.374Z,947.1
2016-02-07T20:05:45.347Z,947.11
2016-02-07T20:06:45.302Z,947.13
2016-02-07T20:07:45.226Z,947.13
2016-02-07T20:08:45.183Z,947.23
2016-02-07T20:09:45.108Z,947.26
2016-02-07T20:10:45.063Z,947.22
2016-02-07T20:11:45.003Z,947.25
2016-02-07T20:12:44.959Z,947.27
2016-02-07T20:13:44.900Z,947.3
2016-02-07T20:14:44.902Z,947.32
2016-02-07T20:15:44.776Z,947.35
2016-02-07T20:16:44.724Z,947.4
2016-02-07T20:17:44.653Z,947.4
2016-02-07T20:18:44.597Z,947.44
2016-02-07T20:19:44.526Z,947.48
2016-02-07T20:20:44.475Z,947.49
2016-02-07T20:21:44.411Z,947.49
2016-02-07T20:22:44.331Z,947.57
2016-02-07T20:23:44.283Z,947.55
2016-02-07T20:24:44.266Z,947.56
2016-02-07T20:25:44.249Z,947.55
2016-02-07T20:26:44.157Z,947.55
2016-02-07T20:27:44.126Z,947.63
2016-02-07T20:28:44.065Z,947.63
2016-02-07T20:29:43.957Z,947.63
2016-02-07T20:30:43.928Z,947.62
2016-02-07T20:31:43.836Z,947.61
2016-02-07T20:32:43.781Z,947.62
2016-02-07T20:33:43.720Z,947.67
2016-02-07T20:34:43.660Z,947.65
2016-02-07T20:35:43.630Z,947.67
2016-02-07T20:36:43.555Z,947.73
2016-02-07T20:37:43.495Z,947.73
2016-02-07T20:38:43.452Z,947.69
2016-02-07T20:39:43.408Z,947.77
2016-02-07T20:40:43.348Z,947.7
2016-02-07T20:41:43.288Z,947.68
2016-02-07T20:42:43.244Z,947.69
2016-02-07T20:43:43.184Z,947.7
2016-02-07T20:44:43.124Z,947.71
2016-02-07T20:45:43.080Z,947.69
2016-02-07T20:46:43.020Z,947.71
2016-02-07T20:47:42.960Z,947.71
2016-02-07T20:48:42.916Z,947.75
2016-02-07T20:49:42.845Z,947.64
2016-02-07T20:50:42.802Z,947.68
2016-02-07T20:51:42.742Z,947.69
2016-02-07T20:52:42.681Z,947.74
2016-02-07T20:53:42.623Z,947.74
2016-02-07T20:54:42.578Z,947.78
2016-02-07T20:55:42.517Z,947.79
2016-02-07T20:56:42.458Z,947.74
2016-02-07T20:57:42.461Z,947.8
2016-02-07T20:58:42.370Z,947.85
2016-02-07T20:59:42.297Z,947.87
2016-02-07T21:00:42.238Z,947.9
2016-02-07T21:01:42.194Z,947.94
2016-02-07T21:02:42.133Z,947.91
2016-02-07T21:03:42.089Z,947.9
2016-02-07T21:04:42.031Z,947.96
2016-02-07T21:05:41.987Z,947.96
2016-02-07T21:06:41.911Z,947.95
2016-02-07T21:07:41.868Z,947.98
2016-02-07T21:08:41.855Z,947.98
2016-02-07T21:09:41.763Z,947.98
2016-02-07T21:10:41.704Z,947.98
2016-02-07T21:11:41.644Z,947.96
2016-02-07T21:12:41.585Z,947.95
2016-02-07T21:13:41.557Z,947.98
2016-02-07T21:14:41.482Z,947.99
2016-02-07T21:15:41.454Z,947.97
2016-02-07T21:16:41.378Z,947.99
2016-02-07T21:17:41.381Z,948.01
2016-02-07T21:18:41.274Z,947.99
2016-02-07T21:19:41.289Z,947.99
2016-02-07T21:20:41.155Z,948
2016-02-07T21:21:41.094Z,947.99
2016-02-07T21:22:41.050Z,948
2016-02-07T21:23:40.991Z,947.99
2016-02-07T21:24:40.931Z,948.02
2016-02-07T21:25:40.902Z,947.98
2016-02-07T21:26:40.847Z,947.96
2016-02-07T21:27:40.787Z,947.94
2016-02-07T21:28:40.728Z,947.95
2016-02-07T21:29:40.668Z,948
2016-02-07T21:30:40.624Z,947.95
2016-02-07T21:31:40.564Z,947.96
2016-02-07T21:32:40.504Z,947.97
2016-02-07T21:33:40.444Z,947.98
2016-02-07T21:34:40.401Z,948
2016-02-07T21:35:40.341Z,948.02
2016-02-07T21:36:40.282Z,948.05
2016-02-07T21:37:40.222Z,948.01
2016-02-07T21:38:40.177Z,948.06
2016-02-07T21:39:40.119Z,948.06
2016-02-07T21:40:40.074Z,948.06
2016-02-07T21:41:40.015Z,948.03
2016-02-07T21:42:39.956Z,948.05
2016-02-07T21:43:39.896Z,948.05
2016-02-07T21:44:39.899Z,948.11
2016-02-07T21:45:39.808Z,948.12
2016-02-07T21:46:39.732Z,948.09
2016-02-07T21:47:39.722Z,948.13
2016-02-07T21:48:39.668Z,948.09
2016-02-07T21:49:39.623Z,948.11
2016-02-07T21:50:39.612Z,948.06
2016-02-07T21:51:39.521Z,948.05
2016-02-07T21:52:39.587Z,948.11
2016-02-07T21:53:39.386Z,948.11
2016-02-07T21:54:39.357Z,948.07
2016-02-07T21:55:39.314Z,948.05
2016-02-07T21:56:39.224Z,948.06
2016-02-07T21:57:39.195Z,948.08
2016-02-07T21:58:39.136Z,948.08
2016-02-07T21:59:39.092Z,948.08
2016-02-07T22:00:39.036Z,948.11
2016-02-07T22:01:38.961Z,948.09
2016-02-07T22:02:38.980Z,948.05
2016-02-07T22:03:38.858Z,948.05
2016-02-07T22:04:38.766Z,948.04
2016-02-07T22:05:38.722Z,948.02
2016-02-07T22:06:38.693Z,948.01
2016-02-07T22:07:38.665Z,947.99
2016-02-07T22:08:38.560Z,947.97
2016-02-07T22:09:38.531Z,947.96
2016-02-07T22:10:38.504Z,947.93
2016-02-07T22:11:38.443Z,947.92
2016-02-07T22:12:38.476Z,947.89
2016-02-07T22:13:38.309Z,947.8
2016-02-07T22:14:38.420Z,947.82
2016-02-07T22:15:38.172Z,947.84
2016-02-07T22:16:38.145Z,947.89
2016-02-07T22:17:38.039Z,947.87
2016-02-07T22:18:37.980Z,947.93
2016-02-07T22:19:38.169Z,947.88
2016-02-07T22:20:37.969Z,947.89
2016-02-07T22:21:37.847Z,947.88
